Amunt
Inicio > meteoXarxa
Fes-te'n soci

METEOXARXA

Xert
Ubicació Pla de la Font
Comarca el Baix Maestrat
Altitud (msnm) 450
Posició geogràfica 40° 31' 16.32" N, 00° 9' 32.40" E
Model Davis Vantage Vue
Presa de dades
Font de les dades Hilario Domenech
Estadístiques. Resum
Data Temperatura (ºC) Humitat (%) Pressió (hPa) Vent (km/h) Precipit. (mm)
Mínima Mitjana Màxima Mínima Mitjana Màxima Mínima Mitjana Màxima Predom. Mitjana Ràfega màxima Total Dies de pluja
Mínima Mitjana Màxima Mínima Mitjana Màxima
Últimes dades diàries
21-02-2017 3,3     9,7     18,2 29,0 67,7 88,0 1.023,5 1.025,5 1.027,3 OSO 3,8 24,0 0,0  
20-02-2017 3,7     9,1     16,1 40,0 68,0 93,0 1.025,3 1.027,1 1.028,8 O 4,1 24,0 0,0  
19-02-2017 4,4     8,5     13,2 57,0 81,6 96,0 1.023,2 1.026,1 1.028,0 S 3,4 24,0 0,0  
18-02-2017 2,7     8,1     14,6 NNW 3,4 22,5 0,2  
17-02-2017 3,2     8,3     15,1 NW 2,4 22,5 0,2  
16-02-2017 6,1     10,0     13,3 ENE 2,7 16,1 0,0  
15-02-2017 4,6     9,3     15,2 WNW 2,3 22,5 0,0  
14-02-2017 5,1     9,3     15,6 WNW 3,4 22,5 0,0  
13-02-2017 7,2     10,4     12,4 E 9,0 45,1 10,8  
12-02-2017 9,3     10,1     12,1 84,0 93,6 98,0 1.009,2 1.010,7 1.011,8 E 10,7 37,0 0,0  
11-02-2017 4,2     7,8     9,8 88,0 93,0 98,0 1.011,8 1.015,2 1.017,8 SSE 7,1 31,0 3,2  
10-02-2017 1,6     5,7     9,7 75,0 83,9 94,0 1.015,7 1.016,9 1.017,8 S 2,1 21,0 0,0  
09-02-2017 3,0     6,9     12,7 25,0 57,6 81,0 1.017,5 1.019,7 1.022,6 SSE 11,1 63,0 0,0  
08-02-2017 5,6     7,1     9,6 47,0 57,1 67,0 1.014,2 1.018,9 1.022,8 SSE 34,5 126,0 0,0  
07-02-2017 8,4     14,1     18,0 50,0 60,1 78,0 1.017,3 1.018,6 1.019,8 SE 10,3 68,0 0,6  
06-02-2017 7,3     11,4     15,5 47,0 54,6 60,0 1.014,5 1.018,2 1.021,1 SSE 32,2 148,0 0,6  
05-02-2017 7,2     9,6     12,9 36,0 60,9 90,0 1.007,5 1.011,9 1.020,0 SSO 18,7 97,0 0,6  
04-02-2017 6,8     11,7     18,9 46,0 73,6 90,0 1.010,8 1.012,8 1.014,7 ONO 3,8 39,0 0,0  
03-02-2017 6,0     10,4     18,7 35,0 69,1 87,0 1.013,7 1.016,1 1.018,3 OSO 4,3 48,0 0,0  
02-02-2017 4,6     8,3     13,1 66,0 85,3 96,0 1.012,8 1.015,3 1.017,6 NO 2,5 21,0 3,4  
01-02-2017 3,7     8,7     15,4 67,0 87,9 98,0 1.017,0 1.018,1 1.019,2 NO 2,7 19,0 0,2  
31-01-2017 5,3     9,1     15,3 68,0 87,8 97,0 1.017,4 1.018,7 1.019,8 NO 2,1 13,0 0,0  
30-01-2017 6,9     10,6     14,9 62,0 78,3 90,0 1.019,8 1.022,1 1.024,3 NO 1,9 16,0 0,0  
29-01-2017 3,3     8,3     12,9 48,0 65,0 81,0 1.023,7 1.024,8 1.026,5 ONO 5,0 39,0 0,0  
28-01-2017 6,4     8,8     12,2 43,0 63,9 85,0 1.010,3 1.017,3 1.024,6 SSE 17,1 72,0 2,8  
27-01-2017 5,1     8,2     12,2 73,0 90,2 96,0 1.009,8 1.013,0 1.018,3 OSO 3,3 27,0 9,2  
26-01-2017 -0,9     3,9     8,9 65,0 85,9 96,0 1.017,6 1.018,9 1.020,3 ONO 1,5 16,0 0,0  
25-01-2017 1,5     6,8     12,3 17,0 44,8 87,0 1.018,0 1.019,6 1.021,1 OSO 4,6 47,0 0,0  
24-01-2017 6,3     8,4     12,2 31,0 47,8 63,0 1.018,2 1.020,1 1.021,7 SE 19,8 77,0 0,0  
23-01-2017 5,1     7,1     9,1 57,0 67,1 77,0 1.017,2 1.018,5 1.019,8 ESE 13,0 61,0 0,2  
22-01-2017 5,9     6,6     7,4 67,0 72,3 80,0 1.015,3 1.016,4 1.018,5 ESE 13,9 45,0 0,4  
21-01-2017 4,5     7,1     8,6 63,0 76,7 97,0 1.016,4 1.018,2 1.020,8 ESE 15,5 45,0 7,4  
Dades del mes en curs (actualitzades fins l'últim dia disponible)
02/2017 1,6 5,1 9,3 9,3 9,6 14,3 18,9 25,0 72,9 98,0 1.007,5 1.018,1 1.028,8   8,3 148,0 19,8  
Últimes dades mensuals
01/2017 -1,5 3,7 8,3 7,5 5,6 11,8 19,4 39,4 65,7 97,7 1.013,0 1.021,2 1.030,6 10,2 109,0 124,2 9
12/2016 0,1 5,5 10,9 9,0 8,4 14,0 17,8 55,6 80,3 96,3 1.016,5 1.027,9 1.037,0 5,4 69,0 105,6 12
11/2016 3,0 7,8 11,8 11,6 10,3 16,0 23,3 6,1 91,7 81,0 10
10/2016 7,9 11,9 15,7 16,3 14,3 21,3 26,2 3,2 41,8 19,0 7
09/2016 10,3 15,4 24,2 20,7 19,3 26,5 37,9 5,6 69,2 38,6 7
08/2016 13,3 16,8 19,7 22,8 23,7 28,8 32,3 5,4 64,4 15,4 4
07/2016 13,3 17,1 19,7 23,5 25,7 29,5 33,8 5,9 57,9 3,8 2
06/2016 11,2 14,7 18,7 20,6 22,0 26,5 32,6 6,2 70,8 21,6 7
05/2016 6,7 11,1 16,3 15,8 12,9 21,0 26,1 7,5 95,0 62,2 8
04/2016 3,5 8,1 11,6 13,0 11,6 17,8 22,9 7,7 104,6 57,0 10
03/2016 2,5 6,4 10,7 10,3 7,9 15,0 22,9 10,7 125,5 57,2 8
02/2016 -0,7 5,8 13,0 10,3 8,9 15,7 21,9 11,1 112,7 36,0 7
01/2016 1,8 5,8 8,7 10,2 8,6 15,1 21,8 6,6 103,0 7,4 3
Dades de l'any en curs (actualitzades fins l'últim dia disponible)
2017 -1,5 4,3 9,3 8,2 5,6 12,8 19,4 17,0 68,1 98,0 1.007,5 1.020,2 1.032,0   9,4 148,0 144,0  
Últimes dades anuals
2012 108,0 441,0
2013 -1,6 12,4 13,9 17,4 18,8 23,0 32,3 70,9 70,9 70,9 1.022,9 1.022,9 1.022,9 6,6 137,0 677,2 45
2014 -0,5 11,0 14,6 15,8 20,0 21,0 33,6 6,9 144,8 726,6 99
2015 -1,6 10,9 17,4 15,8 18,9 21,3 35,8 6,8 151,3 761,6 84
2016 -0,7 10,5 24,2 15,3 7,9 20,6 37,9 80,3 80,3 80,3 1.027,9 1.027,9 1.027,9 6,8 125,5 504,8 85